Time;durP1;ratioP1;P1;durP2;ratioP2;P2;SDS_P1;SDS_P2;PMS_P1;PMS_P2;Temp;Humidity;BMP_temperature;BMP_pressure;BME280_temperature;BME280_humidity;BME280_pressure;Samples;Min_cycle;Max_cycle;Signal;HPM_P1;HPM_P2
2023/06/26 00:01:44;;;;;;;;;;;;;;;;;;5088846;28;19927;-62
2023/06/26 00:04:14;;;;;;;;;;;;;;;;;;5088799;28;19920;-62
2023/06/26 00:06:40;;;;;;;;;;;;;;;;;;5088416;28;19931;-62
2023/06/26 00:09:06;;;;;;;;;;;;;;;;;;5088887;28;19920;-62
2023/06/26 00:11:33;;;;;;;;;;;;;;;;;;5070345;28;19931;-62
2023/06/26 00:14:00;;;;;;;;;;;;;;;;;;5090123;28;19973;-62
2023/06/26 00:16:25;;;;;;;;;;;;;;;;;;5092452;28;20065;-62
2023/06/26 00:18:51;;;;;;;;;;;;;;;;;;5092377;28;20506;-62
2023/06/26 00:21:18;;;;;;;;;;;;;;;;;;5092142;28;19930;-62
2023/06/26 00:23:44;;;;;;;;;;;;;;;;;;5092125;28;19927;-62
2023/06/26 00:26:10;;;;;;;;;;;;;;;;;;5080997;28;19928;-62
2023/06/26 00:28:36;;;;;;;;;;;;;;;;;;5071529;28;19970;-62
2023/06/26 00:31:02;;;;;;;;;;;;;;;;;;5064633;28;20392;-62
2023/06/26 00:33:28;;;;;;;;;;;;;;;;;;5091922;28;19920;-62
2023/06/26 00:35:54;;;;;;;;;;;;;;;;;;5091628;28;19920;-62
2023/06/26 00:38:20;;;;;;;;;;;;;;;;;;5092147;28;20388;-62
2023/06/26 00:40:46;;;;;;;;;;;;;;;;;;5074000;28;19920;-62
2023/06/26 00:43:11;;;;;;;;;;;;;;;;;;5091319;28;19923;-62
2023/06/26 00:45:37;;;;;;;;;;;;;;;;;;5092232;28;19972;-62
2023/06/26 00:48:03;;;;;;;;;;;;;;;;;;5092132;28;19929;-62
2023/06/26 00:50:29;;;;;;;;;;;;;;;;;;5091487;28;20010;-62
2023/06/26 00:53:00;;;;;;;;;;;;;;;;;;5091937;28;20014;-62
2023/06/26 00:55:26;;;;;;;;;;;;;;;;;;5091759;28;20290;-62
2023/06/26 00:57:51;;;;;;;;;;;;;;;;;;5091298;28;19928;-62
2023/06/26 01:00:17;;;;;;;;;;;;;;;;;;5092014;28;19928;-62
2023/06/26 01:02:43;;;;;;;;;;;;;;;;;;5092012;28;19942;-62
2023/06/26 01:05:12;;;;;;;;;;;;;;;;;;5091406;28;19920;-62
2023/06/26 01:07:38;;;;;;;;;;;;;;;;;;5091808;28;19920;-62
2023/06/26 01:10:04;;;;;;;;;;;;;;;;;;5091291;28;20298;-62
2023/06/26 01:12:31;;;;;;;;;;;;;;;;;;5091005;28;19926;-62
2023/06/26 01:14:57;;;;;;;;;;;;;;;;;;5073023;28;19924;-62
2023/06/26 01:17:23;;;;;;;;;;;;;;;;;;5091441;28;19928;-62
2023/06/26 01:19:49;;;;;;;;;;;;;;;;;;5072929;28;19959;-62
2023/06/26 01:22:15;;;;;;;;;;;;;;;;;;5072857;28;19964;-62
2023/06/26 01:24:41;;;;;;;;;;;;;;;;;;5090938;28;19949;-62
2023/06/26 01:27:07;;;;;;;;;;;;;;;;;;5071662;28;19932;-62
2023/06/26 01:29:33;;;;;;;;;;;;;;;;;;5071149;28;19925;-62
2023/06/26 01:31:59;;;;;;;;;;;;;;;;;;5089628;28;19970;-62
2023/06/26 01:34:24;;;;;;;;;;;;;;;;;;5090562;28;19955;-62
2023/06/26 01:36:50;;;;;;;;;;;;;;;;;;5090748;28;19928;-62
2023/06/26 01:39:16;;;;;;;;;;;;;;;;;;5091098;28;19919;-62
2023/06/26 01:41:42;;;;;;;;;;;;;;;;;;5090190;28;20019;-62
2023/06/26 01:44:08;;;;;;;;;;;;;;;;;;5091139;28;20126;-62
2023/06/26 01:46:34;;;;;;;;;;;;;;;;;;5090946;28;19924;-62
2023/06/26 01:49:00;;;;;;;;;;;;;;;;;;5090331;28;19999;-62
2023/06/26 01:51:26;;;;;;;;;;;;;;;;;;5090645;28;19920;-62
2023/06/26 01:53:52;;;;;;;;;;;;;;;;;;5090567;28;19923;-62
2023/06/26 01:56:18;;;;;;;;;;;;;;;;;;5090101;28;19924;-62
2023/06/26 01:58:44;;;;;;;;;;;;;;;;;;5090770;28;19930;-62
2023/06/26 02:01:10;;;;;;;;;;;;;;;;;;5090535;28;20305;-62
2023/06/26 02:03:36;;;;;;;;;;;;;;;;;;5090314;28;19931;-62
2023/06/26 02:06:02;;;;;;;;;;;;;;;;;;5090382;28;19924;-62
2023/06/26 02:08:28;;;;;;;;;;;;;;;;;;5090628;28;20320;-62
2023/06/26 02:10:54;;;;;;;;;;;;;;;;;;5089912;28;19926;-62
2023/06/26 02:13:20;;;;;;;;;;;;;;;;;;5090356;28;19920;-62
2023/06/26 02:15:46;;;;;;;;;;;;;;;;;;5090066;28;19924;-62
2023/06/26 02:18:11;;;;;;;;;;;;;;;;;;5089723;28;19978;-62
2023/06/26 02:20:37;;;;;;;;;;;;;;;;;;5090226;28;20275;-62
2023/06/26 02:23:03;;;;;;;;;;;;;;;;;;5089853;28;19920;-62
2023/06/26 02:25:29;;;;;;;;;;;;;;;;;;5084208;28;19928;-62
2023/06/26 02:27:55;;;;;;;;;;;;;;;;;;5069595;28;20303;-62
2023/06/26 02:30:21;;;;;;;;;;;;;;;;;;5074876;28;19971;-62
2023/06/26 02:32:47;;;;;;;;;;;;;;;;;;5089651;28;20560;-62
2023/06/26 02:35:13;;;;;;;;;;;;;;;;;;5089687;28;19928;-62
2023/06/26 02:37:39;;;;;;;;;;;;;;;;;;5089164;28;19931;-62
2023/06/26 02:40:05;;;;;;;;;;;;;;;;;;5089333;28;19920;-62
2023/06/26 02:42:30;;;;;;;;;;;;;;;;;;5089891;28;19920;-62
2023/06/26 02:44:57;;;;;;;;;;;;;;;;;;5071484;28;19933;-62
2023/06/26 02:47:22;;;;;;;;;;;;;;;;;;5089379;28;19920;-62
2023/06/26 02:49:48;;;;;;;;;;;;;;;;;;5089753;28;19920;-62
2023/06/26 02:52:14;;;;;;;;;;;;;;;;;;5089638;28;19960;-62
2023/06/26 02:54:40;;;;;;;;;;;;;;;;;;5071100;28;19923;-62
2023/06/26 02:57:06;;;;;;;;;;;;;;;;;;5089197;28;20349;-62
2023/06/26 02:59:32;;;;;;;;;;;;;;;;;;5089568;28;20014;-62
2023/06/26 03:01:58;;;;;;;;;;;;;;;;;;5089669;28;20140;-62
2023/06/26 03:04:24;;;;;;;;;;;;;;;;;;5088750;28;19927;-62
2023/06/26 03:06:50;;;;;;;;;;;;;;;;;;5089521;28;19924;-62
2023/06/26 03:09:16;;;;;;;;;;;;;;;;;;5089636;28;19920;-61
2023/06/26 03:11:42;;;;;;;;;;;;;;;;;;5070532;28;19985;-62
2023/06/26 03:14:08;;;;;;;;;;;;;;;;;;5089191;28;20574;-62
2023/06/26 03:16:34;;;;;;;;;;;;;;;;;;5089228;28;19982;-62
2023/06/26 03:19:00;;;;;;;;;;;;;;;;;;5088708;28;19920;-62
2023/06/26 03:21:26;;;;;;;;;;;;;;;;;;5089184;28;19927;-62
2023/06/26 03:23:52;;;;;;;;;;;;;;;;;;5089196;28;19924;-62
2023/06/26 03:26:18;;;;;;;;;;;;;;;;;;5076523;28;19935;-62
2023/06/26 03:28:43;;;;;;;;;;;;;;;;;;5068910;28;19920;-62
2023/06/26 03:31:10;;;;;;;;;;;;;;;;;;5080775;28;20306;-62
2023/06/26 03:33:35;;;;;;;;;;;;;;;;;;5088442;28;20022;-62
2023/06/26 03:36:01;;;;;;;;;;;;;;;;;;5089033;28;20308;-62
2023/06/26 03:38:27;;;;;;;;;;;;;;;;;;5088702;28;19954;-62
2023/06/26 03:40:53;;;;;;;;;;;;;;;;;;5088894;28;19924;-62
2023/06/26 03:43:19;;;;;;;;;;;;;;;;;;5088944;28;19982;-62
2023/06/26 03:45:46;;;;;;;;;;;;;;;;;;5088631;28;20324;-62
2023/06/26 03:48:12;;;;;;;;;;;;;;;;;;5090736;28;20374;-62
2023/06/26 03:50:38;;;;;;;;;;;;;;;;;;5092887;28;20409;-62
2023/06/26 03:53:04;;;;;;;;;;;;;;;;;;5093052;28;19927;-62
2023/06/26 03:55:29;;;;;;;;;;;;;;;;;;5092507;28;19931;-62
2023/06/26 03:57:55;;;;;;;;;;;;;;;;;;5092884;28;19924;-62
2023/06/26 04:00:21;;;;;;;;;;;;;;;;;;5093209;28;19924;-62
2023/06/26 04:02:47;;;;;;;;;;;;;;;;;;5092626;28;20451;-62
2023/06/26 04:05:14;;;;;;;;;;;;;;;;;;5092567;28;19966;-62
2023/06/26 04:07:40;;;;;;;;;;;;;;;;;;5074506;28;19920;-62
2023/06/26 04:10:06;;;;;;;;;;;;;;;;;;5092385;28;19927;-62
2023/06/26 04:12:32;;;;;;;;;;;;;;;;;;5092825;28;19924;-62
2023/06/26 04:14:58;;;;;;;;;;;;;;;;;;5093932;28;19924;-62
2023/06/26 04:17:24;;;;;;;;;;;;;;;;;;5093525;28;19924;-62
2023/06/26 04:19:50;;;;;;;;;;;;;;;;;;5094419;28;19926;-62
2023/06/26 04:22:16;;;;;;;;;;;;;;;;;;5094305;28;19924;-61
2023/06/26 04:24:43;;;;;;;;;;;;;;;;;;5093895;28;20298;-61
2023/06/26 04:27:09;;;;;;;;;;;;;;;;;;5074862;28;19924;-62
2023/06/26 04:29:35;;;;;;;;;;;;;;;;;;5073604;28;19924;-62
2023/06/26 04:32:01;;;;;;;;;;;;;;;;;;5074258;28;19924;-62
2023/06/26 04:34:27;;;;;;;;;;;;;;;;;;5093539;28;19924;-62
2023/06/26 04:36:53;;;;;;;;;;;;;;;;;;5093428;28;19928;-62
2023/06/26 04:39:19;;;;;;;;;;;;;;;;;;5093116;28;19928;-62
2023/06/26 04:41:45;;;;;;;;;;;;;;;;;;5094240;28;19924;-62
2023/06/26 04:44:11;;;;;;;;;;;;;;;;;;5093707;28;19920;-62
2023/06/26 04:46:37;;;;;;;;;;;;;;;;;;5093378;28;20400;-62
2023/06/26 04:49:03;;;;;;;;;;;;;;;;;;5093327;28;20394;-62
2023/06/26 04:51:29;;;;;;;;;;;;;;;;;;5093545;28;19972;-62
2023/06/26 04:53:55;;;;;;;;;;;;;;;;;;5093034;28;19975;-62
2023/06/26 04:56:21;;;;;;;;;;;;;;;;;;5093344;28;19920;-62
2023/06/26 04:58:47;;;;;;;;;;;;;;;;;;5092822;28;20023;-62
2023/06/26 05:01:15;;;;;;;;;;;;;;;;;;5093278;28;19924;-62
2023/06/26 05:03:41;;;;;;;;;;;;;;;;;;5093813;28;19920;-62
2023/06/26 05:06:07;;;;;;;;;;;;;;;;;;5093762;28;19920;-62
2023/06/26 05:08:33;;;;;;;;;;;;;;;;;;5093403;28;19924;-62
2023/06/26 05:10:59;;;;;;;;;;;;;;;;;;5093685;28;19920;-62
2023/06/26 05:13:25;;;;;;;;;;;;;;;;;;5093732;28;19963;-62
2023/06/26 05:15:51;;;;;;;;;;;;;;;;;;5093152;28;19924;-62
2023/06/26 05:18:17;;;;;;;;;;;;;;;;;;5093617;28;20378;-62
2023/06/26 05:20:43;;;;;;;;;;;;;;;;;;5093484;28;19926;-62
2023/06/26 05:23:09;;;;;;;;;;;;;;;;;;5074456;28;19930;-62
2023/06/26 05:25:34;;;;;;;;;;;;;;;;;;5087276;28;19947;-62
2023/06/26 05:28:01;;;;;;;;;;;;;;;;;;5073250;28;19920;-62
2023/06/26 05:30:27;;;;;;;;;;;;;;;;;;5078089;28;19967;-62
2023/06/26 05:32:53;;;;;;;;;;;;;;;;;;5093254;28;20020;-62
2023/06/26 05:35:19;;;;;;;;;;;;;;;;;;5092906;28;19920;-62
2023/06/26 05:37:45;;;;;;;;;;;;;;;;;;5092511;28;20378;-62
2023/06/26 05:40:11;;;;;;;;;;;;;;;;;;5092875;28;19974;-62
2023/06/26 05:42:36;;;;;;;;;;;;;;;;;;5093300;28;19924;-62
2023/06/26 05:45:02;;;;;;;;;;;;;;;;;;5074326;28;19924;-62
2023/06/26 05:47:28;;;;;;;;;;;;;;;;;;5093027;28;19924;-62
2023/06/26 05:49:54;;;;;;;;;;;;;;;;;;5092495;28;19963;-62
2023/06/26 05:52:20;;;;;;;;;;;;;;;;;;5092788;28;19970;-62
2023/06/26 05:54:46;;;;;;;;;;;;;;;;;;5092672;28;19924;-62
2023/06/26 05:57:12;;;;;;;;;;;;;;;;;;5092731;28;19932;-62
2023/06/26 05:59:38;;;;;;;;;;;;;;;;;;5074219;28;19947;-62
2023/06/26 06:02:04;;;;;;;;;;;;;;;;;;5092350;28;19920;-62
2023/06/26 06:04:30;;;;;;;;;;;;;;;;;;5092628;28;19946;-62
2023/06/26 06:06:56;;;;;;;;;;;;;;;;;;5092303;28;19946;-62
2023/06/26 06:09:22;;;;;;;;;;;;;;;;;;5091813;28;19974;-62
2023/06/26 06:11:48;;;;;;;;;;;;;;;;;;5092233;28;19924;-62
2023/06/26 06:14:14;;;;;;;;;;;;;;;;;;5092039;28;19982;-62
2023/06/26 06:16:40;;;;;;;;;;;;;;;;;;5091269;28;19924;-62
2023/06/26 06:19:07;;;;;;;;;;;;;;;;;;5092182;28;19927;-62
2023/06/26 06:21:33;;;;;;;;;;;;;;;;;;5091566;28;19968;-61
2023/06/26 06:24:01;;;;;;;;;;;;;;;;;;5082940;28;20011;-61
2023/06/26 06:26:26;;;;;;;;;;;;;;;;;;5082790;28;19924;-60
2023/06/26 06:28:52;;;;;;;;;;;;;;;;;;5082688;28;20362;-62
2023/06/26 06:31:18;;;;;;;;;;;;;;;;;;5084971;28;19974;-61
2023/06/26 06:33:44;;;;;;;;;;;;;;;;;;5090857;28;19985;-61
2023/06/26 06:36:10;;;;;;;;;;;;;;;;;;5091092;28;19969;-62
2023/06/26 06:38:36;;;;;;;;;;;;;;;;;;5090891;28;20026;-62
2023/06/26 06:41:02;;;;;;;;;;;;;;;;;;5090576;28;20065;-62
2023/06/26 06:43:28;;;;;;;;;;;;;;;;;;5087820;28;19928;-61
2023/06/26 06:45:54;;;;;;;;;;;;;;;;;;5080817;28;19924;-62
2023/06/26 06:48:20;;;;;;;;;;;;;;;;;;5085994;28;19927;-61
2023/06/26 06:50:46;;;;;;;;;;;;;;;;;;5081819;28;19920;-61
2023/06/26 06:53:12;;;;;;;;;;;;;;;;;;5090368;28;19947;-60
2023/06/26 06:55:38;;;;;;;;;;;;;;;;;;5084451;28;19928;-60
2023/06/26 06:58:04;;;;;;;;;;;;;;;;;;5090486;28;19950;-62
2023/06/26 07:00:31;;;;;;;;;;;;;;;;;;5089755;28;19920;-61
2023/06/26 07:02:57;;;;;;;;;;;;;;;;;;5090750;28;19924;-61
2023/06/26 07:05:23;;;;;;;;;;;;;;;;;;5090337;28;19924;-61
2023/06/26 07:07:50;;;;;;;;;;;;;;;;;;5090120;28;19950;-62
2023/06/26 07:10:16;;;;;;;;;;;;;;;;;;5072388;28;19967;-60
2023/06/26 07:12:43;;;;;;;;;;;;;;;;;;5072403;28;19943;-61
2023/06/26 07:15:09;;;;;;;;;;;;;;;;;;5065867;28;19924;-61
2023/06/26 07:17:37;;;;;;;;;;;;;;;;;;5090294;28;19935;-61
2023/06/26 07:20:08;;;;;;;;;;;;;;;;;;5072438;28;19931;-61
2023/06/26 07:22:49;;;;;;;;;;;;;;;;;;5083351;28;19920;-62
2023/06/26 07:25:15;;;;;;;;;;;;;;;;;;5079904;28;19920;-63
2023/06/26 07:27:41;;;;;;;;;;;;;;;;;;5083448;28;19924;-61
2023/06/26 07:30:10;;;;;;;;;;;;;;;;;;5085039;28;19924;-62
2023/06/26 07:32:43;;;;;;;;;;;;;;;;;;5090043;28;19923;-64
2023/06/26 07:35:09;;;;;;;;;;;;;;;;;;5089485;28;19931;-62
2023/06/26 07:37:35;;;;;;;;;;;;;;;;;;5068771;28;20019;-62
2023/06/26 07:40:02;;;;;;;;;;;;;;;;;;5084133;28;19931;-63
2023/06/26 07:42:32;;;;;;;;;;;;;;;;;;5089014;28;20405;-61
2023/06/26 07:44:58;;;;;;;;;;;;;;;;;;5086163;28;19924;-62
2023/06/26 07:47:24;;;;;;;;;;;;;;;;;;5084115;28;19970;-61
2023/06/26 07:49:56;;;;;;;;;;;;;;;;;;5082393;28;19924;-63
2023/06/26 07:52:25;;;;;;;;;;;;;;;;;;5076750;28;19924;-61
2023/06/26 07:54:52;;;;;;;;;;;;;;;;;;5083168;28;19969;-62
2023/06/26 07:57:18;;;;;;;;;;;;;;;;;;5075986;28;19930;-60
2023/06/26 07:59:47;;;;;;;;;;;;;;;;;;5078308;28;19924;-60
2023/06/26 08:02:13;;;;;;;;;;;;;;;;;;5073838;28;19990;-61
2023/06/26 08:04:39;;;;;;;;;;;;;;;;;;5084360;28;19970;-61
2023/06/26 08:07:05;;;;;;;;;;;;;;;;;;5085424;28;19956;-60
2023/06/26 08:09:32;;;;;;;;;;;;;;;;;;5077810;28;20836;-60
2023/06/26 08:11:58;;;;;;;;;;;;;;;;;;5087477;28;19970;-61
2023/06/26 08:14:24;;;;;;;;;;;;;;;;;;5085230;28;20386;-61
2023/06/26 08:16:50;;;;;;;;;;;;;;;;;;5087428;28;19924;-61
2023/06/26 08:19:16;;;;;;;;;;;;;;;;;;5071623;28;19950;-60
2023/06/26 08:21:41;;;;;;;;;;;;;;;;;;5085258;28;19964;-60
2023/06/26 08:24:07;;;;;;;;;;;;;;;;;;5089153;28;19993;-61
2023/06/26 08:26:33;;;;;;;;;;;;;;;;;;5081766;28;19932;-60
2023/06/26 08:28:59;;;;;;;;;;;;;;;;;;5079104;28;19928;-59
2023/06/26 08:31:25;;;;;;;;;;;;;;;;;;5077498;28;20414;-60
2023/06/26 08:33:51;;;;;;;;;;;;;;;;;;5081973;28;19927;-59
2023/06/26 08:36:17;;;;;;;;;;;;;;;;;;5080358;28;19924;-60
2023/06/26 08:38:43;;;;;;;;;;;;;;;;;;5091443;28;19924;-60
2023/06/26 08:41:09;;;;;;;;;;;;;;;;;;5086291;28;19924;-62
2023/06/26 08:43:35;;;;;;;;;;;;;;;;;;5079532;28;19924;-59
2023/06/26 08:46:01;;;;;;;;;;;;;;;;;;5083325;28;19939;-61
2023/06/26 08:48:27;;;;;;;;;;;;;;;;;;5060145;28;19921;-62
2023/06/26 08:50:53;;;;;;;;;;;;;;;;;;5080461;28;19990;-68
2023/06/26 08:53:19;;;;;;;;;;;;;;;;;;5084985;28;19924;-61
2023/06/26 08:55:45;;;;;;;;;;;;;;;;;;5090506;28;19942;-59
2023/06/26 08:58:12;;;;;;;;;;;;;;;;;;5079453;28;19981;-60
2023/06/26 09:00:38;;;;;;;;;;;;;;;;;;5078964;28;19963;-60
2023/06/26 09:03:04;;;;;;;;;;;;;;;;;;5091233;28;19970;-61
2023/06/26 09:05:33;;;;;;;;;;;;;;;;;;5090014;28;19924;-61
2023/06/26 09:07:59;;;;;;;;;;;;;;;;;;5092329;28;19924;-61
2023/06/26 09:10:25;;;;;;;;;;;;;;;;;;5087306;28;19920;-61
2023/06/26 09:12:51;;;;;;;;;;;;;;;;;;5080364;28;19924;-61
2023/06/26 09:15:17;;;;;;;;;;;;;;;;;;5085454;28;20014;-61
2023/06/26 09:17:43;;;;;;;;;;;;;;;;;;5092234;28;19932;-61
2023/06/26 09:20:10;;;;;;;;;;;;;;;;;;5086606;28;19928;-59
2023/06/26 09:22:36;;;;;;;;;;;;;;;;;;5079223;28;19924;-60
2023/06/26 09:25:02;;;;;;;;;;;;;;;;;;5077241;28;19931;-60
2023/06/26 09:27:28;;;;;;;;;;;;;;;;;;5072426;28;19929;-59
2023/06/26 09:29:55;;;;;;;;;;;;;;;;;;5091466;28;19982;-59
2023/06/26 09:32:21;;;;;;;;;;;;;;;;;;5078101;28;20001;-58
2023/06/26 09:34:47;;;;;;;;;;;;;;;;;;5077776;28;19970;-60
2023/06/26 09:37:14;;;;;;;;;;;;;;;;;;5091555;28;20005;-60
2023/06/26 09:39:40;;;;;;;;;;;;;;;;;;5080988;28;19966;-59
2023/06/26 09:42:06;;;;;;;;;;;;;;;;;;5087000;28;20028;-60
2023/06/26 09:44:32;;;;;;;;;;;;;;;;;;5090849;28;19982;-60
2023/06/26 09:46:59;;;;;;;;;;;;;;;;;;5081940;28;20386;-60
2023/06/26 09:49:25;;;;;;;;;;;;;;;;;;5062144;28;20314;-60
2023/06/26 09:51:51;;;;;;;;;;;;;;;;;;5074113;28;20011;-58
2023/06/26 09:54:18;;;;;;;;;;;;;;;;;;5084381;28;20053;-59
2023/06/26 09:56:44;;;;;;;;;;;;;;;;;;5085807;28;19920;-58
2023/06/26 09:59:10;;;;;;;;;;;;;;;;;;5086680;28;19927;-60
2023/06/26 10:01:36;;;;;;;;;;;;;;;;;;5083518;28;19920;-60
2023/06/26 10:04:02;;;;;;;;;;;;;;;;;;5079019;28;19924;-59
2023/06/26 10:06:29;;;;;;;;;;;;;;;;;;5062026;28;19935;-61
2023/06/26 10:08:54;;;;;;;;;;;;;;;;;;5081341;28;19920;-60
2023/06/26 10:11:20;;;;;;;;;;;;;;;;;;5061026;28;19920;-60
2023/06/26 10:13:47;;;;;;;;;;;;;;;;;;5086519;28;19923;-61
2023/06/26 10:16:13;;;;;;;;;;;;;;;;;;5087192;28;20520;-61
2023/06/26 10:18:39;;;;;;;;;;;;;;;;;;5088700;28;20278;-61
2023/06/26 10:21:05;;;;;;;;;;;;;;;;;;5078928;28;19924;-59
2023/06/26 10:23:31;;;;;;;;;;;;;;;;;;5088840;28;19935;-59
2023/06/26 10:25:56;;;;;;;;;;;;;;;;;;5084750;28;19947;-58
2023/06/26 10:28:22;;;;;;;;;;;;;;;;;;5085643;28;19920;-58
2023/06/26 10:30:48;;;;;;;;;;;;;;;;;;5087831;28;20336;-59
2023/06/26 10:33:14;;;;;;;;;;;;;;;;;;5085598;28;19926;-59
2023/06/26 10:35:40;;;;;;;;;;;;;;;;;;5079746;28;19946;-58
2023/06/26 10:38:06;;;;;;;;;;;;;;;;;;5089958;28;20006;-61
2023/06/26 10:40:32;;;;;;;;;;;;;;;;;;5080370;28;19924;-61
2023/06/26 10:42:58;;;;;;;;;;;;;;;;;;5070984;28;19924;-61
2023/06/26 10:45:24;;;;;;;;;;;;;;;;;;5086125;28;19920;-61
2023/06/26 10:47:50;;;;;;;;;;;;;;;;;;5090700;28;19963;-61
2023/06/26 10:50:16;;;;;;;;;;;;;;;;;;5089499;28;19931;-61
2023/06/26 10:52:42;;;;;;;;;;;;;;;;;;5072661;28;19954;-61
2023/06/26 10:55:08;;;;;;;;;;;;;;;;;;5090477;28;19932;-61
2023/06/26 10:57:34;;;;;;;;;;;;;;;;;;5089287;28;19924;-61
2023/06/26 11:00:00;;;;;;;;;;;;;;;;;;5090333;28;19927;-61
2023/06/26 11:02:26;;;;;;;;;;;;;;;;;;5089827;28;19974;-61
2023/06/26 11:04:53;;;;;;;;;;;;;;;;;;5089349;28;19959;-61
2023/06/26 11:07:19;;;;;;;;;;;;;;;;;;5089715;28;20344;-61
2023/06/26 11:09:45;;;;;;;;;;;;;;;;;;5090126;28;20392;-61
2023/06/26 11:12:11;;;;;;;;;;;;;;;;;;5083364;28;19920;-62
2023/06/26 11:14:37;;;;;;;;;;;;;;;;;;5082463;28;19920;-62
2023/06/26 11:17:03;;;;;;;;;;;;;;;;;;5078536;28;19925;-62
2023/06/26 11:19:29;;;;;;;;;;;;;;;;;;5084418;28;19975;-61
2023/06/26 11:21:55;;;;;;;;;;;;;;;;;;5087936;28;19989;-61
2023/06/26 11:24:21;;;;;;;;;;;;;;;;;;5071148;28;19924;-59
2023/06/26 11:26:47;;;;;;;;;;;;;;;;;;5072290;28;20026;-58
2023/06/26 11:29:13;;;;;;;;;;;;;;;;;;5083045;28;19924;-59
2023/06/26 11:31:40;;;;;;;;;;;;;;;;;;5074867;28;21464;-60
2023/06/26 11:34:12;;;;;;;;;;;;;;;;;;5089303;28;20478;-58
2023/06/26 11:36:38;;;;;;;;;;;;;;;;;;5087687;28;19955;-59
2023/06/26 11:39:07;;;;;;;;;;;;;;;;;;5083140;28;19976;-60
2023/06/26 11:41:33;;;;;;;;;;;;;;;;;;5079423;28;19959;-60
2023/06/26 11:43:59;;;;;;;;;;;;;;;;;;5083763;28;20002;-59
2023/06/26 11:46:25;;;;;;;;;;;;;;;;;;5060692;28;19924;-61
2023/06/26 11:48:51;;;;;;;;;;;;;;;;;;5079277;28;20046;-61
2023/06/26 11:51:17;;;;;;;;;;;;;;;;;;5086793;28;19924;-59
2023/06/26 11:53:43;;;;;;;;;;;;;;;;;;5072765;28;19927;-60
2023/06/26 11:56:09;;;;;;;;;;;;;;;;;;5083868;28;19920;-57
2023/06/26 11:58:35;;;;;;;;;;;;;;;;;;5090136;28;19924;-58
2023/06/26 12:01:02;;;;;;;;;;;;;;;;;;5090104;28;19930;-58
2023/06/26 12:03:28;;;;;;;;;;;;;;;;;;5071395;28;19928;-58
2023/06/26 12:05:54;;;;;;;;;;;;;;;;;;5089759;28;19931;-58
2023/06/26 12:08:20;;;;;;;;;;;;;;;;;;5091093;28;19969;-59
2023/06/26 12:10:46;;;;;;;;;;;;;;;;;;5093583;28;19920;-57
2023/06/26 12:13:12;;;;;;;;;;;;;;;;;;5094051;28;19924;-58
2023/06/26 12:15:38;;;;;;;;;;;;;;;;;;5093846;28;19928;-57
2023/06/26 12:18:04;;;;;;;;;;;;;;;;;;5075525;28;19952;-56
2023/06/26 12:20:32;;;;;;;;;;;;;;;;;;5093840;28;19947;-58
2023/06/26 12:22:58;;;;;;;;;;;;;;;;;;5094161;28;20003;-57
2023/06/26 12:25:24;;;;;;;;;;;;;;;;;;5092959;28;20019;-59
2023/06/26 12:27:50;;;;;;;;;;;;;;;;;;5093602;28;19927;-59
2023/06/26 12:30:16;;;;;;;;;;;;;;;;;;5093755;28;20302;-58
2023/06/26 12:32:42;;;;;;;;;;;;;;;;;;5093233;28;19924;-58
2023/06/26 12:35:07;;;;;;;;;;;;;;;;;;5093522;28;19924;-58
2023/06/26 12:37:33;;;;;;;;;;;;;;;;;;5093170;28;19934;-59
2023/06/26 12:40:00;;;;;;;;;;;;;;;;;;5093096;28;19988;-59
2023/06/26 12:42:26;;;;;;;;;;;;;;;;;;5093404;28;19927;-59
2023/06/26 12:44:52;;;;;;;;;;;;;;;;;;5093500;28;19924;-59
2023/06/26 12:47:18;;;;;;;;;;;;;;;;;;5092668;28;19935;-59
2023/06/26 12:49:44;;;;;;;;;;;;;;;;;;5093182;28;19920;-59
2023/06/26 12:52:10;;;;;;;;;;;;;;;;;;5093183;28;19920;-59
2023/06/26 12:54:36;;;;;;;;;;;;;;;;;;5092513;28;19953;-58
2023/06/26 12:57:03;;;;;;;;;;;;;;;;;;5092875;28;20023;-59
2023/06/26 12:59:30;;;;;;;;;;;;;;;;;;5091045;28;20011;-58
2023/06/26 13:01:56;;;;;;;;;;;;;;;;;;5091899;28;19931;-58
2023/06/26 13:04:21;;;;;;;;;;;;;;;;;;5093065;28;19920;-59
2023/06/26 13:06:47;;;;;;;;;;;;;;;;;;5093088;28;19969;-58
2023/06/26 13:09:14;;;;;;;;;;;;;;;;;;5092458;28;19924;-58
2023/06/26 13:11:40;;;;;;;;;;;;;;;;;;5092772;28;19927;-58
2023/06/26 13:14:06;;;;;;;;;;;;;;;;;;5092552;28;19924;-58
2023/06/26 13:16:32;;;;;;;;;;;;;;;;;;5092234;28;20370;-58
2023/06/26 13:18:58;;;;;;;;;;;;;;;;;;5092399;28;20445;-60
2023/06/26 13:21:24;;;;;;;;;;;;;;;;;;5091531;28;20022;-60
2023/06/26 13:23:50;;;;;;;;;;;;;;;;;;5091769;28;19920;-60
2023/06/26 13:26:15;;;;;;;;;;;;;;;;;;5092289;28;19924;-57
2023/06/26 13:28:41;;;;;;;;;;;;;;;;;;5073802;28;19989;-58
2023/06/26 13:31:07;;;;;;;;;;;;;;;;;;5092457;28;19971;-60
2023/06/26 13:33:33;;;;;;;;;;;;;;;;;;5092021;28;19942;-60
2023/06/26 13:35:59;;;;;;;;;;;;;;;;;;5091734;28;19973;-59
2023/06/26 13:38:25;;;;;;;;;;;;;;;;;;5092180;28;20006;-58
2023/06/26 13:40:51;;;;;;;;;;;;;;;;;;5092226;28;19920;-57
2023/06/26 13:43:17;;;;;;;;;;;;;;;;;;5091867;28;19927;-58
2023/06/26 13:45:44;;;;;;;;;;;;;;;;;;5092152;28;19924;-58
2023/06/26 13:48:10;;;;;;;;;;;;;;;;;;5091669;28;20379;-58
2023/06/26 13:50:36;;;;;;;;;;;;;;;;;;5091876;28;19931;-58
2023/06/26 13:53:02;;;;;;;;;;;;;;;;;;5073746;28;20344;-59
2023/06/26 13:55:28;;;;;;;;;;;;;;;;;;5091743;28;19924;-59
2023/06/26 13:57:55;;;;;;;;;;;;;;;;;;5092336;28;19932;-60
2023/06/26 14:00:22;;;;;;;;;;;;;;;;;;5091295;28;19930;-59
2023/06/26 14:02:48;;;;;;;;;;;;;;;;;;5091374;28;19920;-59
2023/06/26 14:05:14;;;;;;;;;;;;;;;;;;5091807;28;19969;-59
2023/06/26 14:07:40;;;;;;;;;;;;;;;;;;5091948;28;19971;-59
2023/06/26 14:10:06;;;;;;;;;;;;;;;;;;5091001;28;19985;-59
2023/06/26 14:12:32;;;;;;;;;;;;;;;;;;5091588;28;20023;-58
2023/06/26 14:14:58;;;;;;;;;;;;;;;;;;5091143;28;19985;-55
2023/06/26 14:17:25;;;;;;;;;;;;;;;;;;5090931;28;19928;-59
2023/06/26 14:19:51;;;;;;;;;;;;;;;;;;5091533;28;19963;-57
2023/06/26 14:22:17;;;;;;;;;;;;;;;;;;5073549;28;20431;-60
2023/06/26 14:24:43;;;;;;;;;;;;;;;;;;5090937;28;19927;-59
2023/06/26 14:27:09;;;;;;;;;;;;;;;;;;5091294;28;20001;-58
2023/06/26 14:29:35;;;;;;;;;;;;;;;;;;5091781;28;19924;-60
2023/06/26 14:32:01;;;;;;;;;;;;;;;;;;5089913;28;20001;-59
2023/06/26 14:34:27;;;;;;;;;;;;;;;;;;5084025;28;19970;-60
2023/06/26 14:36:53;;;;;;;;;;;;;;;;;;5090979;28;19930;-61
2023/06/26 14:39:19;;;;;;;;;;;;;;;;;;5091929;28;20006;-60
2023/06/26 14:41:47;;;;;;;;;;;;;;;;;;5091599;28;20438;-59
2023/06/26 14:44:13;;;;;;;;;;;;;;;;;;5090919;28;20056;-59
2023/06/26 14:46:39;;;;;;;;;;;;;;;;;;5090664;28;20465;-59
2023/06/26 14:49:05;;;;;;;;;;;;;;;;;;5091901;28;19924;-59
2023/06/26 14:51:31;;;;;;;;;;;;;;;;;;5092820;28;20304;-59
2023/06/26 14:53:57;;;;;;;;;;;;;;;;;;5091485;28;19962;-59
2023/06/26 14:56:23;;;;;;;;;;;;;;;;;;5073756;28;19923;-59
2023/06/26 14:58:49;;;;;;;;;;;;;;;;;;5091797;28;19939;-59
2023/06/26 15:01:19;;;;;;;;;;;;;;;;;;5092634;28;20008;-59
2023/06/26 15:03:45;;;;;;;;;;;;;;;;;;5094618;28;20007;-59
2023/06/26 15:06:11;;;;;;;;;;;;;;;;;;5094548;28;19946;-59
2023/06/26 15:08:37;;;;;;;;;;;;;;;;;;5093492;28;19920;-59
2023/06/26 15:11:03;;;;;;;;;;;;;;;;;;5094281;28;19951;-59
2023/06/26 15:13:29;;;;;;;;;;;;;;;;;;5095209;28;19924;-59
2023/06/26 15:15:55;;;;;;;;;;;;;;;;;;5094205;28;20014;-59
2023/06/26 15:18:21;;;;;;;;;;;;;;;;;;5094893;28;19924;-59
2023/06/26 15:20:47;;;;;;;;;;;;;;;;;;5092005;28;19931;-59
2023/06/26 15:23:12;;;;;;;;;;;;;;;;;;5092154;28;19974;-59
2023/06/26 15:25:38;;;;;;;;;;;;;;;;;;5086137;28;19989;-59
2023/06/26 15:28:05;;;;;;;;;;;;;;;;;;5054272;28;19921;-59
2023/06/26 15:30:30;;;;;;;;;;;;;;;;;;5077695;28;19920;-59
2023/06/26 15:32:56;;;;;;;;;;;;;;;;;;5092383;28;19966;-59
2023/06/26 15:35:22;;;;;;;;;;;;;;;;;;5090906;28;19978;-58
2023/06/26 15:37:49;;;;;;;;;;;;;;;;;;5090046;28;19932;-59
2023/06/26 15:40:15;;;;;;;;;;;;;;;;;;5090451;28;19926;-57
2023/06/26 15:42:41;;;;;;;;;;;;;;;;;;5090651;28;20014;-59
2023/06/26 15:45:07;;;;;;;;;;;;;;;;;;5094247;28;19920;-58
2023/06/26 15:47:34;;;;;;;;;;;;;;;;;;5094957;28;19955;-58
2023/06/26 15:50:00;;;;;;;;;;;;;;;;;;5076452;28;20348;-58
2023/06/26 15:52:26;;;;;;;;;;;;;;;;;;5094393;28;19920;-58
2023/06/26 15:54:52;;;;;;;;;;;;;;;;;;5094767;28;19928;-59
2023/06/26 15:57:18;;;;;;;;;;;;;;;;;;5094744;28;20017;-58
2023/06/26 15:59:44;;;;;;;;;;;;;;;;;;5094243;28;19986;-59
2023/06/26 16:02:10;;;;;;;;;;;;;;;;;;5094557;28;19931;-59
2023/06/26 16:04:36;;;;;;;;;;;;;;;;;;5094603;28;19924;-58
2023/06/26 16:07:02;;;;;;;;;;;;;;;;;;5094346;28;20021;-59
2023/06/26 16:09:28;;;;;;;;;;;;;;;;;;5077387;28;20398;-59
2023/06/26 16:11:54;;;;;;;;;;;;;;;;;;5095665;28;19942;-58
2023/06/26 16:14:20;;;;;;;;;;;;;;;;;;5094460;28;20416;-58
2023/06/26 16:16:46;;;;;;;;;;;;;;;;;;5094766;28;19959;-58
2023/06/26 16:19:11;;;;;;;;;;;;;;;;;;5094818;28;19947;-59
2023/06/26 16:21:37;;;;;;;;;;;;;;;;;;5093955;28;19924;-58
2023/06/26 16:24:03;;;;;;;;;;;;;;;;;;5075667;28;20065;-59
2023/06/26 16:26:29;;;;;;;;;;;;;;;;;;5080606;28;19925;-59
2023/06/26 16:28:55;;;;;;;;;;;;;;;;;;5074511;28;20011;-59
2023/06/26 16:31:21;;;;;;;;;;;;;;;;;;5087992;28;20579;-59
2023/06/26 16:33:47;;;;;;;;;;;;;;;;;;5095762;28;19928;-59
2023/06/26 16:36:13;;;;;;;;;;;;;;;;;;5094766;28;19924;-59
2023/06/26 16:38:41;;;;;;;;;;;;;;;;;;5095322;28;20390;-59